sensor_id;sensor_type;location;lat;lon;timestamp;P1;durP1;ratioP1;P2;durP2;ratioP2
83646;SDS011;73609;50.134;14.376;2024-03-25T00:00:05;2.6;;;1.9;;
83646;SDS011;73609;50.134;14.376;2024-03-25T00:02:05;3.4;;;1.9;;
83646;SDS011;73609;50.134;14.376;2024-03-25T00:04:05;3.4;;;2.1;;
83646;SDS011;73609;50.134;14.376;2024-03-25T00:06:05;2.8;;;2.0;;
83646;SDS011;73609;50.134;14.376;2024-03-25T00:08:05;4.0;;;2.3;;
83646;SDS011;73609;50.134;14.376;2024-03-25T00:10:05;4.3;;;2.2;;
83646;SDS011;73609;50.134;14.376;2024-03-25T00:12:05;3.0;;;2.0;;
83646;SDS011;73609;50.134;14.376;2024-03-25T00:14:05;2.8;;;1.9;;
83646;SDS011;73609;50.134;14.376;2024-03-25T00:16:05;3.3;;;2.0;;
83646;SDS011;73609;50.134;14.376;2024-03-25T00:18:05;4.4;;;2.2;;
83646;SDS011;73609;50.134;14.376;2024-03-25T00:20:05;3.7;;;2.0;;
83646;SDS011;73609;50.134;14.376;2024-03-25T00:22:05;3.6;;;2.0;;
83646;SDS011;73609;50.134;14.376;2024-03-25T00:24:05;3.7;;;2.2;;
83646;SDS011;73609;50.134;14.376;2024-03-25T00:26:05;4.0;;;2.2;;
83646;SDS011;73609;50.134;14.376;2024-03-25T00:28:05;5.4;;;2.3;;
83646;SDS011;73609;50.134;14.376;2024-03-25T00:30:05;3.8;;;2.2;;
83646;SDS011;73609;50.134;14.376;2024-03-25T00:32:05;3.1;;;2.1;;
83646;SDS011;73609;50.134;14.376;2024-03-25T00:34:05;5.3;;;2.5;;
83646;SDS011;73609;50.134;14.376;2024-03-25T00:36:05;3.8;;;2.5;;
83646;SDS011;73609;50.134;14.376;2024-03-25T00:38:05;3.9;;;2.6;;
83646;SDS011;73609;50.134;14.376;2024-03-25T00:40:05;5.2;;;2.5;;
83646;SDS011;73609;50.134;14.376;2024-03-25T00:42:05;3.6;;;2.1;;
83646;SDS011;73609;50.134;14.376;2024-03-25T00:44:05;4.6;;;2.6;;
83646;SDS011;73609;50.134;14.376;2024-03-25T00:46:05;4.5;;;2.5;;
83646;SDS011;73609;50.134;14.376;2024-03-25T00:48:05;4.5;;;2.4;;
83646;SDS011;73609;50.134;14.376;2024-03-25T00:50:05;4.3;;;2.8;;
83646;SDS011;73609;50.134;14.376;2024-03-25T00:52:05;4.8;;;2.7;;
83646;SDS011;73609;50.134;14.376;2024-03-25T00:54:05;4.5;;;2.6;;
83646;SDS011;73609;50.134;14.376;2024-03-25T00:56:05;4.1;;;2.6;;
83646;SDS011;73609;50.134;14.376;2024-03-25T00:58:05;3.2;;;2.2;;
83646;SDS011;73609;50.134;14.376;2024-03-25T01:00:05;4.1;;;2.7;;
83646;SDS011;73609;50.134;14.376;2024-03-25T01:04:06;4.2;;;2.5;;
83646;SDS011;73609;50.134;14.376;2024-03-25T01:06:05;4.0;;;2.4;;
83646;SDS011;73609;50.134;14.376;2024-03-25T01:08:05;3.8;;;2.6;;
83646;SDS011;73609;50.134;14.376;2024-03-25T01:10:05;4.1;;;2.7;;
83646;SDS011;73609;50.134;14.376;2024-03-25T01:12:05;3.6;;;2.3;;
83646;SDS011;73609;50.134;14.376;2024-03-25T01:14:05;4.6;;;2.8;;
83646;SDS011;73609;50.134;14.376;2024-03-25T01:16:05;4.3;;;2.6;;
83646;SDS011;73609;50.134;14.376;2024-03-25T01:18:05;4.9;;;2.9;;
83646;SDS011;73609;50.134;14.376;2024-03-25T01:20:05;4.6;;;2.4;;
83646;SDS011;73609;50.134;14.376;2024-03-25T01:22:05;4.3;;;2.7;;
83646;SDS011;73609;50.134;14.376;2024-03-25T01:24:05;4.3;;;2.5;;
83646;SDS011;73609;50.134;14.376;2024-03-25T01:26:05;4.0;;;2.5;;
83646;SDS011;73609;50.134;14.376;2024-03-25T01:28:05;5.3;;;2.9;;
83646;SDS011;73609;50.134;14.376;2024-03-25T01:30:05;3.4;;;2.2;;
83646;SDS011;73609;50.134;14.376;2024-03-25T01:32:05;4.6;;;2.7;;
83646;SDS011;73609;50.134;14.376;2024-03-25T01:34:05;3.4;;;2.2;;
83646;SDS011;73609;50.134;14.376;2024-03-25T01:36:05;5.4;;;2.5;;
83646;SDS011;73609;50.134;14.376;2024-03-25T01:38:05;5.0;;;2.5;;
83646;SDS011;73609;50.134;14.376;2024-03-25T01:40:05;4.7;;;2.5;;
83646;SDS011;73609;50.134;14.376;2024-03-25T01:42:05;3.7;;;2.4;;
83646;SDS011;73609;50.134;14.376;2024-03-25T01:44:05;3.4;;;2.3;;
83646;SDS011;73609;50.134;14.376;2024-03-25T01:46:05;4.8;;;2.6;;
83646;SDS011;73609;50.134;14.376;2024-03-25T01:48:06;4.4;;;2.6;;
83646;SDS011;73609;50.134;14.376;2024-03-25T01:50:05;4.5;;;2.3;;
83646;SDS011;73609;50.134;14.376;2024-03-25T01:52:05;4.7;;;2.6;;
83646;SDS011;73609;50.134;14.376;2024-03-25T01:54:05;4.1;;;2.5;;
83646;SDS011;73609;50.134;14.376;2024-03-25T01:56:05;3.1;;;2.2;;
83646;SDS011;73609;50.134;14.376;2024-03-25T01:58:05;4.9;;;2.4;;
83646;SDS011;73609;50.134;14.376;2024-03-25T02:00:05;4.1;;;2.5;;
83646;SDS011;73609;50.134;14.376;2024-03-25T02:02:05;4.1;;;2.3;;
83646;SDS011;73609;50.134;14.376;2024-03-25T02:04:06;4.3;;;2.4;;
83646;SDS011;73609;50.134;14.376;2024-03-25T02:06:06;4.4;;;2.6;;
83646;SDS011;73609;50.134;14.376;2024-03-25T02:08:05;3.7;;;2.0;;
83646;SDS011;73609;50.134;14.376;2024-03-25T02:10:05;4.5;;;2.3;;
83646;SDS011;73609;50.134;14.376;2024-03-25T02:12:05;3.8;;;2.6;;
83646;SDS011;73609;50.134;14.376;2024-03-25T02:14:05;4.4;;;2.6;;
83646;SDS011;73609;50.134;14.376;2024-03-25T02:16:05;3.8;;;2.3;;
83646;SDS011;73609;50.134;14.376;2024-03-25T02:18:05;5.2;;;2.3;;
83646;SDS011;73609;50.134;14.376;2024-03-25T02:20:05;3.9;;;2.1;;
83646;SDS011;73609;50.134;14.376;2024-03-25T02:22:05;3.7;;;2.2;;
83646;SDS011;73609;50.134;14.376;2024-03-25T02:24:05;4.3;;;2.3;;
83646;SDS011;73609;50.134;14.376;2024-03-25T02:26:05;4.8;;;2.3;;
83646;SDS011;73609;50.134;14.376;2024-03-25T02:28:05;3.7;;;2.3;;
83646;SDS011;73609;50.134;14.376;2024-03-25T02:30:05;3.9;;;2.6;;
83646;SDS011;73609;50.134;14.376;2024-03-25T02:32:05;4.0;;;2.4;;
83646;SDS011;73609;50.134;14.376;2024-03-25T02:34:05;4.2;;;2.4;;
83646;SDS011;73609;50.134;14.376;2024-03-25T02:36:05;3.6;;;2.2;;
83646;SDS011;73609;50.134;14.376;2024-03-25T02:38:05;4.0;;;2.4;;
83646;SDS011;73609;50.134;14.376;2024-03-25T02:40:05;5.1;;;2.6;;
83646;SDS011;73609;50.134;14.376;2024-03-25T02:42:05;3.7;;;2.5;;
83646;SDS011;73609;50.134;14.376;2024-03-25T02:44:05;4.7;;;2.3;;
83646;SDS011;73609;50.134;14.376;2024-03-25T02:46:05;4.5;;;2.2;;
83646;SDS011;73609;50.134;14.376;2024-03-25T02:48:05;4.1;;;2.7;;
83646;SDS011;73609;50.134;14.376;2024-03-25T02:50:05;4.2;;;2.5;;
83646;SDS011;73609;50.134;14.376;2024-03-25T02:52:05;3.7;;;2.0;;
83646;SDS011;73609;50.134;14.376;2024-03-25T02:54:05;3.9;;;2.4;;
83646;SDS011;73609;50.134;14.376;2024-03-25T02:56:05;4.1;;;2.3;;
83646;SDS011;73609;50.134;14.376;2024-03-25T02:58:05;3.7;;;2.4;;
83646;SDS011;73609;50.134;14.376;2024-03-25T03:00:05;3.3;;;2.3;;
83646;SDS011;73609;50.134;14.376;2024-03-25T03:02:05;5.0;;;2.5;;
83646;SDS011;73609;50.134;14.376;2024-03-25T03:04:05;3.4;;;2.4;;
83646;SDS011;73609;50.134;14.376;2024-03-25T03:06:05;4.6;;;2.5;;
83646;SDS011;73609;50.134;14.376;2024-03-25T03:08:05;3.9;;;2.4;;
83646;SDS011;73609;50.134;14.376;2024-03-25T03:10:05;4.7;;;2.2;;
83646;SDS011;73609;50.134;14.376;2024-03-25T03:12:05;3.7;;;2.3;;
83646;SDS011;73609;50.134;14.376;2024-03-25T03:14:05;3.6;;;2.1;;
83646;SDS011;73609;50.134;14.376;2024-03-25T03:16:05;4.6;;;2.3;;
83646;SDS011;73609;50.134;14.376;2024-03-25T03:18:05;3.2;;;2.3;;
83646;SDS011;73609;50.134;14.376;2024-03-25T03:20:05;4.2;;;2.2;;
83646;SDS011;73609;50.134;14.376;2024-03-25T03:22:05;3.3;;;2.1;;
83646;SDS011;73609;50.134;14.376;2024-03-25T03:24:05;3.7;;;2.1;;
83646;SDS011;73609;50.134;14.376;2024-03-25T03:26:05;3.0;;;2.0;;
83646;SDS011;73609;50.134;14.376;2024-03-25T03:28:05;3.5;;;2.3;;
83646;SDS011;73609;50.134;14.376;2024-03-25T03:30:05;4.9;;;2.3;;
83646;SDS011;73609;50.134;14.376;2024-03-25T03:32:05;3.8;;;2.3;;
83646;SDS011;73609;50.134;14.376;2024-03-25T03:34:05;2.7;;;1.9;;
83646;SDS011;73609;50.134;14.376;2024-03-25T03:36:05;3.2;;;1.8;;
83646;SDS011;73609;50.134;14.376;2024-03-25T03:38:05;3.9;;;2.3;;
83646;SDS011;73609;50.134;14.376;2024-03-25T03:40:05;3.3;;;1.7;;
83646;SDS011;73609;50.134;14.376;2024-03-25T03:42:05;3.2;;;2.0;;
83646;SDS011;73609;50.134;14.376;2024-03-25T03:44:05;2.6;;;1.9;;
83646;SDS011;73609;50.134;14.376;2024-03-25T03:46:05;3.3;;;1.9;;
83646;SDS011;73609;50.134;14.376;2024-03-25T03:48:05;4.8;;;2.2;;
83646;SDS011;73609;50.134;14.376;2024-03-25T03:50:05;2.8;;;1.8;;
83646;SDS011;73609;50.134;14.376;2024-03-25T03:52:06;4.0;;;2.1;;
83646;SDS011;73609;50.134;14.376;2024-03-25T03:54:05;2.9;;;1.7;;
83646;SDS011;73609;50.134;14.376;2024-03-25T03:56:05;4.0;;;1.8;;
83646;SDS011;73609;50.134;14.376;2024-03-25T03:58:05;3.6;;;1.8;;
83646;SDS011;73609;50.134;14.376;2024-03-25T04:00:05;3.1;;;1.8;;
83646;SDS011;73609;50.134;14.376;2024-03-25T04:02:05;4.3;;;2.3;;
83646;SDS011;73609;50.134;14.376;2024-03-25T04:04:05;3.8;;;2.1;;
83646;SDS011;73609;50.134;14.376;2024-03-25T04:06:09;3.8;;;2.2;;
83646;SDS011;73609;50.134;14.376;2024-03-25T04:08:05;3.6;;;1.6;;
83646;SDS011;73609;50.134;14.376;2024-03-25T04:10:05;3.0;;;1.6;;
83646;SDS011;73609;50.134;14.376;2024-03-25T04:12:05;3.0;;;1.7;;
83646;SDS011;73609;50.134;14.376;2024-03-25T04:14:05;3.3;;;1.7;;
83646;SDS011;73609;50.134;14.376;2024-03-25T04:16:05;3.1;;;1.6;;
83646;SDS011;73609;50.134;14.376;2024-03-25T04:18:05;2.3;;;1.6;;
83646;SDS011;73609;50.134;14.376;2024-03-25T04:20:05;4.4;;;1.7;;
83646;SDS011;73609;50.134;14.376;2024-03-25T04:22:05;4.1;;;1.8;;
83646;SDS011;73609;50.134;14.376;2024-03-25T04:24:05;3.2;;;1.9;;
83646;SDS011;73609;50.134;14.376;2024-03-25T04:26:05;3.3;;;1.4;;
83646;SDS011;73609;50.134;14.376;2024-03-25T04:28:05;2.7;;;1.6;;
83646;SDS011;73609;50.134;14.376;2024-03-25T04:30:06;3.0;;;1.6;;
83646;SDS011;73609;50.134;14.376;2024-03-25T04:32:05;2.1;;;1.3;;
83646;SDS011;73609;50.134;14.376;2024-03-25T04:34:05;3.1;;;1.5;;
83646;SDS011;73609;50.134;14.376;2024-03-25T04:36:05;3.1;;;1.5;;
83646;SDS011;73609;50.134;14.376;2024-03-25T04:38:05;2.5;;;1.5;;
83646;SDS011;73609;50.134;14.376;2024-03-25T04:40:06;3.0;;;1.5;;
83646;SDS011;73609;50.134;14.376;2024-03-25T04:42:05;3.3;;;1.6;;
83646;SDS011;73609;50.134;14.376;2024-03-25T04:44:05;2.6;;;1.4;;
83646;SDS011;73609;50.134;14.376;2024-03-25T04:46:05;3.4;;;1.5;;
83646;SDS011;73609;50.134;14.376;2024-03-25T04:48:05;3.7;;;1.6;;
83646;SDS011;73609;50.134;14.376;2024-03-25T04:50:05;3.9;;;1.5;;
83646;SDS011;73609;50.134;14.376;2024-03-25T04:52:05;3.4;;;1.8;;
83646;SDS011;73609;50.134;14.376;2024-03-25T04:54:05;2.2;;;1.4;;
83646;SDS011;73609;50.134;14.376;2024-03-25T04:56:05;2.7;;;1.9;;
83646;SDS011;73609;50.134;14.376;2024-03-25T04:58:05;3.4;;;1.8;;
83646;SDS011;73609;50.134;14.376;2024-03-25T05:00:05;3.4;;;1.3;;
83646;SDS011;73609;50.134;14.376;2024-03-25T05:02:05;3.5;;;1.1;;
83646;SDS011;73609;50.134;14.376;2024-03-25T05:04:05;2.5;;;1.0;;
83646;SDS011;73609;50.134;14.376;2024-03-25T05:06:05;2.8;;;1.1;;
83646;SDS011;73609;50.134;14.376;2024-03-25T05:08:05;1.9;;;1.0;;
83646;SDS011;73609;50.134;14.376;2024-03-25T05:10:05;2.3;;;1.2;;
83646;SDS011;73609;50.134;14.376;2024-03-25T05:12:05;2.5;;;1.1;;
83646;SDS011;73609;50.134;14.376;2024-03-25T05:14:05;1.9;;;1.1;;
83646;SDS011;73609;50.134;14.376;2024-03-25T05:16:05;2.5;;;1.3;;
83646;SDS011;73609;50.134;14.376;2024-03-25T05:18:05;2.8;;;1.6;;
83646;SDS011;73609;50.134;14.376;2024-03-25T05:20:05;2.7;;;1.3;;
83646;SDS011;73609;50.134;14.376;2024-03-25T05:22:05;4.4;;;1.3;;
83646;SDS011;73609;50.134;14.376;2024-03-25T05:24:05;3.6;;;1.7;;
83646;SDS011;73609;50.134;14.376;2024-03-25T05:26:05;2.5;;;1.5;;
83646;SDS011;73609;50.134;14.376;2024-03-25T05:28:05;2.2;;;1.4;;
83646;SDS011;73609;50.134;14.376;2024-03-25T05:30:05;3.4;;;1.6;;
83646;SDS011;73609;50.134;14.376;2024-03-25T05:32:05;2.1;;;1.4;;
83646;SDS011;73609;50.134;14.376;2024-03-25T05:34:05;3.1;;;1.4;;
83646;SDS011;73609;50.134;14.376;2024-03-25T05:36:05;3.3;;;1.8;;
83646;SDS011;73609;50.134;14.376;2024-03-25T05:38:05;4.0;;;2.1;;
83646;SDS011;73609;50.134;14.376;2024-03-25T05:40:05;2.7;;;1.6;;
83646;SDS011;73609;50.134;14.376;2024-03-25T05:42:05;1.7;;;1.0;;
83646;SDS011;73609;50.134;14.376;2024-03-25T05:44:05;2.0;;;1.3;;
83646;SDS011;73609;50.134;14.376;2024-03-25T05:46:05;1.9;;;1.1;;
83646;SDS011;73609;50.134;14.376;2024-03-25T05:48:05;2.0;;;1.2;;
83646;SDS011;73609;50.134;14.376;2024-03-25T05:50:05;2.1;;;1.1;;
83646;SDS011;73609;50.134;14.376;2024-03-25T05:52:05;2.0;;;1.0;;
83646;SDS011;73609;50.134;14.376;2024-03-25T05:54:05;2.9;;;1.5;;
83646;SDS011;73609;50.134;14.376;2024-03-25T05:56:05;2.7;;;1.1;;
83646;SDS011;73609;50.134;14.376;2024-03-25T05:58:05;2.9;;;1.3;;
83646;SDS011;73609;50.134;14.376;2024-03-25T06:00:05;2.5;;;1.3;;
83646;SDS011;73609;50.134;14.376;2024-03-25T06:02:05;2.4;;;1.3;;
83646;SDS011;73609;50.134;14.376;2024-03-25T06:04:05;2.2;;;1.4;;
83646;SDS011;73609;50.134;14.376;2024-03-25T06:06:05;2.3;;;1.4;;
83646;SDS011;73609;50.134;14.376;2024-03-25T06:08:06;2.3;;;1.3;;
83646;SDS011;73609;50.134;14.376;2024-03-25T06:10:05;3.3;;;1.4;;
83646;SDS011;73609;50.134;14.376;2024-03-25T06:12:05;2.3;;;1.3;;
83646;SDS011;73609;50.134;14.376;2024-03-25T06:14:05;3.4;;;1.7;;
83646;SDS011;73609;50.134;14.376;2024-03-25T06:16:05;2.5;;;1.3;;
83646;SDS011;73609;50.134;14.376;2024-03-25T06:18:05;3.1;;;1.5;;
83646;SDS011;73609;50.134;14.376;2024-03-25T06:20:05;2.5;;;1.7;;
83646;SDS011;73609;50.134;14.376;2024-03-25T06:22:05;3.3;;;1.4;;
83646;SDS011;73609;50.134;14.376;2024-03-25T06:24:05;2.7;;;1.5;;
83646;SDS011;73609;50.134;14.376;2024-03-25T06:26:05;2.6;;;1.4;;
83646;SDS011;73609;50.134;14.376;2024-03-25T06:28:05;4.1;;;1.8;;
83646;SDS011;73609;50.134;14.376;2024-03-25T06:30:05;4.3;;;1.6;;
83646;SDS011;73609;50.134;14.376;2024-03-25T06:32:05;4.3;;;1.7;;
83646;SDS011;73609;50.134;14.376;2024-03-25T06:34:05;4.1;;;1.6;;
83646;SDS011;73609;50.134;14.376;2024-03-25T06:36:05;4.8;;;1.7;;
83646;SDS011;73609;50.134;14.376;2024-03-25T06:38:05;3.1;;;1.6;;
83646;SDS011;73609;50.134;14.376;2024-03-25T06:40:05;4.1;;;1.6;;
83646;SDS011;73609;50.134;14.376;2024-03-25T06:42:05;3.3;;;1.5;;
83646;SDS011;73609;50.134;14.376;2024-03-25T06:44:05;2.4;;;1.4;;
83646;SDS011;73609;50.134;14.376;2024-03-25T06:46:05;3.0;;;1.4;;
83646;SDS011;73609;50.134;14.376;2024-03-25T06:48:05;2.9;;;1.5;;
83646;SDS011;73609;50.134;14.376;2024-03-25T06:50:05;4.4;;;1.7;;
83646;SDS011;73609;50.134;14.376;2024-03-25T06:52:05;3.6;;;1.5;;
83646;SDS011;73609;50.134;14.376;2024-03-25T06:54:05;3.0;;;1.5;;
83646;SDS011;73609;50.134;14.376;2024-03-25T06:56:05;4.5;;;1.7;;
83646;SDS011;73609;50.134;14.376;2024-03-25T06:58:05;3.6;;;1.7;;
83646;SDS011;73609;50.134;14.376;2024-03-25T07:00:05;2.7;;;1.6;;
83646;SDS011;73609;50.134;14.376;2024-03-25T07:02:05;3.2;;;1.8;;
83646;SDS011;73609;50.134;14.376;2024-03-25T07:04:05;3.5;;;1.7;;
83646;SDS011;73609;50.134;14.376;2024-03-25T07:06:05;2.8;;;1.7;;
83646;SDS011;73609;50.134;14.376;2024-03-25T07:08:05;4.0;;;1.8;;
83646;SDS011;73609;50.134;14.376;2024-03-25T07:10:05;3.6;;;1.7;;
83646;SDS011;73609;50.134;14.376;2024-03-25T07:12:05;3.5;;;1.8;;
83646;SDS011;73609;50.134;14.376;2024-03-25T07:14:05;3.5;;;1.7;;
83646;SDS011;73609;50.134;14.376;2024-03-25T07:16:05;3.5;;;1.8;;
83646;SDS011;73609;50.134;14.376;2024-03-25T07:18:05;4.7;;;1.7;;
83646;SDS011;73609;50.134;14.376;2024-03-25T07:20:05;4.7;;;2.2;;
83646;SDS011;73609;50.134;14.376;2024-03-25T07:22:05;3.6;;;1.7;;
83646;SDS011;73609;50.134;14.376;2024-03-25T07:24:05;5.7;;;2.0;;
83646;SDS011;73609;50.134;14.376;2024-03-25T07:26:05;2.5;;;1.4;;
83646;SDS011;73609;50.134;14.376;2024-03-25T07:28:05;3.7;;;1.7;;
83646;SDS011;73609;50.134;14.376;2024-03-25T07:30:05;3.6;;;1.4;;
83646;SDS011;73609;50.134;14.376;2024-03-25T07:32:05;2.7;;;1.4;;
83646;SDS011;73609;50.134;14.376;2024-03-25T07:34:05;2.4;;;1.3;;
83646;SDS011;73609;50.134;14.376;2024-03-25T07:36:05;3.0;;;1.1;;
83646;SDS011;73609;50.134;14.376;2024-03-25T07:38:05;3.4;;;1.4;;
83646;SDS011;73609;50.134;14.376;2024-03-25T07:40:05;3.9;;;1.6;;
83646;SDS011;73609;50.134;14.376;2024-03-25T07:42:05;2.9;;;1.4;;
83646;SDS011;73609;50.134;14.376;2024-03-25T07:44:05;2.8;;;1.3;;
83646;SDS011;73609;50.134;14.376;2024-03-25T07:46:05;3.2;;;1.4;;
83646;SDS011;73609;50.134;14.376;2024-03-25T07:48:05;3.2;;;1.6;;
83646;SDS011;73609;50.134;14.376;2024-03-25T07:50:05;3.1;;;1.4;;
83646;SDS011;73609;50.134;14.376;2024-03-25T07:52:05;3.9;;;1.5;;
83646;SDS011;73609;50.134;14.376;2024-03-25T07:54:05;2.6;;;1.3;;
83646;SDS011;73609;50.134;14.376;2024-03-25T07:56:05;4.3;;;1.5;;
83646;SDS011;73609;50.134;14.376;2024-03-25T07:58:05;3.0;;;1.3;;
83646;SDS011;73609;50.134;14.376;2024-03-25T08:00:05;2.8;;;1.4;;
83646;SDS011;73609;50.134;14.376;2024-03-25T08:02:05;2.7;;;1.3;;
83646;SDS011;73609;50.134;14.376;2024-03-25T08:04:05;2.9;;;1.1;;
83646;SDS011;73609;50.134;14.376;2024-03-25T08:06:05;2.1;;;1.2;;
83646;SDS011;73609;50.134;14.376;2024-03-25T08:08:05;2.9;;;1.3;;
83646;SDS011;73609;50.134;14.376;2024-03-25T08:10:05;2.8;;;1.2;;
83646;SDS011;73609;50.134;14.376;2024-03-25T08:12:05;1.8;;;1.0;;
83646;SDS011;73609;50.134;14.376;2024-03-25T08:14:05;2.1;;;1.2;;
83646;SDS011;73609;50.134;14.376;2024-03-25T08:16:05;3.1;;;1.1;;
83646;SDS011;73609;50.134;14.376;2024-03-25T08:18:05;2.8;;;1.3;;
83646;SDS011;73609;50.134;14.376;2024-03-25T08:20:05;2.9;;;1.1;;
83646;SDS011;73609;50.134;14.376;2024-03-25T08:22:05;3.6;;;1.2;;
83646;SDS011;73609;50.134;14.376;2024-03-25T08:24:05;4.2;;;1.3;;
83646;SDS011;73609;50.134;14.376;2024-03-25T08:26:05;2.2;;;1.2;;
83646;SDS011;73609;50.134;14.376;2024-03-25T08:28:05;2.1;;;1.0;;
83646;SDS011;73609;50.134;14.376;2024-03-25T08:30:05;2.7;;;1.4;;
83646;SDS011;73609;50.134;14.376;2024-03-25T08:32:05;2.8;;;1.0;;
83646;SDS011;73609;50.134;14.376;2024-03-25T08:34:05;2.6;;;1.0;;
83646;SDS011;73609;50.134;14.376;2024-03-25T08:36:05;2.1;;;1.2;;
83646;SDS011;73609;50.134;14.376;2024-03-25T08:38:05;2.8;;;1.2;;
83646;SDS011;73609;50.134;14.376;2024-03-25T08:40:05;3.0;;;0.9;;
83646;SDS011;73609;50.134;14.376;2024-03-25T08:42:05;3.1;;;0.9;;
83646;SDS011;73609;50.134;14.376;2024-03-25T08:44:05;2.0;;;1.0;;
83646;SDS011;73609;50.134;14.376;2024-03-25T08:46:05;2.1;;;1.2;;
83646;SDS011;73609;50.134;14.376;2024-03-25T08:48:05;3.3;;;1.1;;
83646;SDS011;73609;50.134;14.376;2024-03-25T08:50:05;3.3;;;1.5;;
83646;SDS011;73609;50.134;14.376;2024-03-25T08:52:05;1.7;;;1.0;;
83646;SDS011;73609;50.134;14.376;2024-03-25T08:54:05;1.8;;;1.0;;
83646;SDS011;73609;50.134;14.376;2024-03-25T08:56:05;2.9;;;1.0;;
83646;SDS011;73609;50.134;14.376;2024-03-25T08:58:05;2.8;;;1.1;;
83646;SDS011;73609;50.134;14.376;2024-03-25T09:00:05;2.2;;;1.0;;
83646;SDS011;73609;50.134;14.376;2024-03-25T09:02:05;3.3;;;1.3;;
83646;SDS011;73609;50.134;14.376;2024-03-25T09:04:06;2.3;;;1.0;;
83646;SDS011;73609;50.134;14.376;2024-03-25T09:06:05;2.5;;;1.5;;
83646;SDS011;73609;50.134;14.376;2024-03-25T09:08:05;2.7;;;0.9;;
83646;SDS011;73609;50.134;14.376;2024-03-25T09:10:05;2.8;;;1.0;;
83646;SDS011;73609;50.134;14.376;2024-03-25T09:12:05;3.0;;;1.1;;
83646;SDS011;73609;50.134;14.376;2024-03-25T09:14:05;3.8;;;2.2;;
83646;SDS011;73609;50.134;14.376;2024-03-25T09:16:05;2.3;;;1.0;;
83646;SDS011;73609;50.134;14.376;2024-03-25T09:18:05;2.7;;;1.6;;
83646;SDS011;73609;50.134;14.376;2024-03-25T09:20:05;2.6;;;1.3;;
83646;SDS011;73609;50.134;14.376;2024-03-25T09:22:05;3.5;;;1.5;;
83646;SDS011;73609;50.134;14.376;2024-03-25T09:24:05;2.2;;;1.1;;
83646;SDS011;73609;50.134;14.376;2024-03-25T09:26:05;2.3;;;1.3;;
83646;SDS011;73609;50.134;14.376;2024-03-25T09:28:05;4.2;;;1.9;;
83646;SDS011;73609;50.134;14.376;2024-03-25T09:30:05;5.8;;;2.3;;
83646;SDS011;73609;50.134;14.376;2024-03-25T09:32:05;3.0;;;1.6;;
83646;SDS011;73609;50.134;14.376;2024-03-25T09:34:05;3.8;;;1.4;;
83646;SDS011;73609;50.134;14.376;2024-03-25T09:36:05;2.9;;;1.2;;
83646;SDS011;73609;50.134;14.376;2024-03-25T09:38:05;3.0;;;1.3;;
83646;SDS011;73609;50.134;14.376;2024-03-25T09:40:05;5.4;;;2.4;;
83646;SDS011;73609;50.134;14.376;2024-03-25T09:42:06;3.1;;;1.1;;
83646;SDS011;73609;50.134;14.376;2024-03-25T09:44:05;2.3;;;0.9;;
83646;SDS011;73609;50.134;14.376;2024-03-25T09:46:05;2.4;;;0.9;;
83646;SDS011;73609;50.134;14.376;2024-03-25T09:48:05;2.3;;;1.0;;
83646;SDS011;73609;50.134;14.376;2024-03-25T09:50:06;3.9;;;1.2;;
83646;SDS011;73609;50.134;14.376;2024-03-25T09:52:05;2.8;;;0.9;;
83646;SDS011;73609;50.134;14.376;2024-03-25T09:54:05;3.3;;;1.4;;
83646;SDS011;73609;50.134;14.376;2024-03-25T09:56:05;3.4;;;1.5;;
83646;SDS011;73609;50.134;14.376;2024-03-25T09:58:05;2.3;;;1.0;;
83646;SDS011;73609;50.134;14.376;2024-03-25T10:00:06;2.6;;;1.1;;
83646;SDS011;73609;50.134;14.376;2024-03-25T10:02:05;2.3;;;1.2;;
83646;SDS011;73609;50.134;14.376;2024-03-25T10:04:05;3.1;;;1.2;;
83646;SDS011;73609;50.134;14.376;2024-03-25T10:06:05;1.9;;;1.0;;
83646;SDS011;73609;50.134;14.376;2024-03-25T10:08:05;2.5;;;1.1;;
83646;SDS011;73609;50.134;14.376;2024-03-25T10:10:05;2.3;;;1.2;;
83646;SDS011;73609;50.134;14.376;2024-03-25T10:12:05;3.3;;;1.3;;
83646;SDS011;73609;50.134;14.376;2024-03-25T10:14:05;3.0;;;1.3;;
83646;SDS011;73609;50.134;14.376;2024-03-25T10:16:05;3.0;;;1.4;;
83646;SDS011;73609;50.134;14.376;2024-03-25T10:18:05;4.1;;;1.8;;
83646;SDS011;73609;50.134;14.376;2024-03-25T10:20:05;3.3;;;1.6;;
83646;SDS011;73609;50.134;14.376;2024-03-25T10:22:05;4.2;;;1.6;;
83646;SDS011;73609;50.134;14.376;2024-03-25T10:24:05;2.2;;;1.4;;
83646;SDS011;73609;50.134;14.376;2024-03-25T10:26:05;2.8;;;1.4;;
83646;SDS011;73609;50.134;14.376;2024-03-25T10:28:05;2.4;;;1.2;;
83646;SDS011;73609;50.134;14.376;2024-03-25T10:30:05;3.2;;;1.4;;
83646;SDS011;73609;50.134;14.376;2024-03-25T10:32:05;3.2;;;1.5;;
83646;SDS011;73609;50.134;14.376;2024-03-25T10:34:05;3.4;;;1.5;;
83646;SDS011;73609;50.134;14.376;2024-03-25T10:36:05;3.0;;;1.4;;
83646;SDS011;73609;50.134;14.376;2024-03-25T10:38:06;3.1;;;1.5;;
83646;SDS011;73609;50.134;14.376;2024-03-25T10:40:05;2.2;;;1.2;;
83646;SDS011;73609;50.134;14.376;2024-03-25T10:42:05;3.0;;;1.5;;
83646;SDS011;73609;50.134;14.376;2024-03-25T10:44:05;4.2;;;1.6;;
83646;SDS011;73609;50.134;14.376;2024-03-25T10:46:05;4.1;;;1.4;;
83646;SDS011;73609;50.134;14.376;2024-03-25T10:50:07;4.1;;;1.8;;
83646;SDS011;73609;50.134;14.376;2024-03-25T10:52:05;2.8;;;1.5;;
83646;SDS011;73609;50.134;14.376;2024-03-25T10:54:05;3.4;;;1.5;;
83646;SDS011;73609;50.134;14.376;2024-03-25T10:56:05;3.3;;;1.9;;
83646;SDS011;73609;50.134;14.376;2024-03-25T10:58:05;3.5;;;1.7;;
83646;SDS011;73609;50.134;14.376;2024-03-25T11:00:05;3.6;;;1.4;;
83646;SDS011;73609;50.134;14.376;2024-03-25T11:02:05;4.9;;;1.7;;
83646;SDS011;73609;50.134;14.376;2024-03-25T11:04:05;3.7;;;1.6;;
83646;SDS011;73609;50.134;14.376;2024-03-25T11:06:05;3.4;;;1.5;;
83646;SDS011;73609;50.134;14.376;2024-03-25T11:08:12;2.7;;;1.5;;
83646;SDS011;73609;50.134;14.376;2024-03-25T11:10:05;5.7;;;1.8;;
83646;SDS011;73609;50.134;14.376;2024-03-25T11:12:05;3.9;;;1.6;;
83646;SDS011;73609;50.134;14.376;2024-03-25T11:14:15;3.0;;;1.6;;
83646;SDS011;73609;50.134;14.376;2024-03-25T11:16:05;3.7;;;1.6;;
83646;SDS011;73609;50.134;14.376;2024-03-25T11:18:10;3.3;;;1.7;;
83646;SDS011;73609;50.134;14.376;2024-03-25T11:20:09;4.1;;;1.8;;
83646;SDS011;73609;50.134;14.376;2024-03-25T11:22:07;4.6;;;2.3;;
83646;SDS011;73609;50.134;14.376;2024-03-25T11:24:06;4.3;;;2.3;;
83646;SDS011;73609;50.134;14.376;2024-03-25T11:26:05;6.9;;;4.9;;
83646;SDS011;73609;50.134;14.376;2024-03-25T11:28:05;5.5;;;4.0;;
83646;SDS011;73609;50.134;14.376;2024-03-25T11:30:05;6.3;;;3.9;;
83646;SDS011;73609;50.134;14.376;2024-03-25T11:32:05;4.6;;;2.3;;
83646;SDS011;73609;50.134;14.376;2024-03-25T11:34:05;10.1;;;9.1;;
83646;SDS011;73609;50.134;14.376;2024-03-25T11:36:05;5.4;;;4.4;;
83646;SDS011;73609;50.134;14.376;2024-03-25T11:38:05;5.1;;;2.6;;
83646;SDS011;73609;50.134;14.376;2024-03-25T11:40:06;5.3;;;2.6;;
83646;SDS011;73609;50.134;14.376;2024-03-25T11:42:05;2.9;;;1.5;;
83646;SDS011;73609;50.134;14.376;2024-03-25T11:44:05;3.8;;;1.7;;
83646;SDS011;73609;50.134;14.376;2024-03-25T11:46:05;3.6;;;1.6;;
83646;SDS011;73609;50.134;14.376;2024-03-25T11:48:05;3.2;;;1.7;;
83646;SDS011;73609;50.134;14.376;2024-03-25T11:50:09;3.1;;;1.6;;
83646;SDS011;73609;50.134;14.376;2024-03-25T11:52:06;3.9;;;1.7;;
83646;SDS011;73609;50.134;14.376;2024-03-25T11:54:05;3.5;;;1.6;;
83646;SDS011;73609;50.134;14.376;2024-03-25T11:56:05;4.2;;;1.8;;
83646;SDS011;73609;50.134;14.376;2024-03-25T11:58:05;4.2;;;2.0;;
83646;SDS011;73609;50.134;14.376;2024-03-25T12:00:05;3.2;;;1.7;;
83646;SDS011;73609;50.134;14.376;2024-03-25T12:02:06;2.8;;;1.6;;
83646;SDS011;73609;50.134;14.376;2024-03-25T12:04:16;3.0;;;1.7;;
83646;SDS011;73609;50.134;14.376;2024-03-25T12:06:05;4.3;;;1.7;;
83646;SDS011;73609;50.134;14.376;2024-03-25T12:08:07;4.3;;;1.8;;
83646;SDS011;73609;50.134;14.376;2024-03-25T12:10:05;4.0;;;1.5;;
83646;SDS011;73609;50.134;14.376;2024-03-25T12:12:05;4.9;;;1.6;;
83646;SDS011;73609;50.134;14.376;2024-03-25T12:14:05;3.0;;;1.6;;
83646;SDS011;73609;50.134;14.376;2024-03-25T12:16:05;4.3;;;1.7;;